createdAt,value
2019-03-16T00:00:37.257Z,0.00
2019-03-16T00:01:37.305Z,0.00
2019-03-16T00:03:30.319Z,0.00
2019-03-16T00:04:30.338Z,0.00
2019-03-16T00:06:23.316Z,0.00
2019-03-16T00:07:32.891Z,0.00
2019-03-16T00:09:16.379Z,0.00
2019-03-16T00:10:16.414Z,0.00
2019-03-16T00:12:09.388Z,0.00
2019-03-16T00:13:09.443Z,0.00
2019-03-16T00:15:02.480Z,0.00
2019-03-16T00:16:02.492Z,0.00
2019-03-16T00:17:55.508Z,0.00
2019-03-16T00:18:55.525Z,0.00
2019-03-16T00:20:48.564Z,0.00
2019-03-16T00:21:48.557Z,0.00
2019-03-16T00:23:41.562Z,0.00
2019-03-16T00:24:41.594Z,0.00
2019-03-16T00:26:34.567Z,0.00
2019-03-16T00:27:34.624Z,0.00
2019-03-16T00:29:27.632Z,0.00
2019-03-16T00:30:27.656Z,0.00
2019-03-16T00:32:20.637Z,0.00
2019-03-16T00:33:20.696Z,0.00
2019-03-16T00:35:13.701Z,0.00
2019-03-16T00:36:13.728Z,0.00
2019-03-16T00:38:06.701Z,0.00
2019-03-16T00:39:06.762Z,0.00
2019-03-16T00:40:59.779Z,0.00
2019-03-16T00:41:59.811Z,0.00
2019-03-16T00:43:52.788Z,0.00
2019-03-16T00:44:52.837Z,0.00
2019-03-16T00:46:45.849Z,0.00
2019-03-16T00:47:45.916Z,0.00
2019-03-16T00:49:38.886Z,0.00
2019-03-16T00:50:38.924Z,0.00
2019-03-16T00:52:31.917Z,0.00
2019-03-16T00:53:31.948Z,0.00
2019-03-16T00:55:24.934Z,0.00
2019-03-16T00:56:24.990Z,0.00
2019-03-16T00:58:17.999Z,0.00
2019-03-16T00:59:18.026Z,0.00
2019-03-16T01:01:11.014Z,0.00
2019-03-16T01:02:11.070Z,0.00
2019-03-16T01:04:04.066Z,0.00
2019-03-16T01:05:04.112Z,0.00
2019-03-16T01:06:57.107Z,0.00
2019-03-16T01:07:57.149Z,0.00
2019-03-16T01:09:50.160Z,0.00
2019-03-16T01:10:50.181Z,0.00
2019-03-16T01:12:43.205Z,0.00
2019-03-16T01:13:43.260Z,0.00
2019-03-16T01:15:36.358Z,0.00
2019-03-16T01:16:36.292Z,0.00
2019-03-16T01:18:29.273Z,0.00
2019-03-16T01:19:29.328Z,0.00
2019-03-16T01:21:22.348Z,0.00
2019-03-16T01:22:22.437Z,0.00
2019-03-16T01:24:15.350Z,0.00
2019-03-16T01:25:15.405Z,0.00
2019-03-16T01:27:08.415Z,0.00
2019-03-16T01:28:08.449Z,0.00
2019-03-16T01:30:01.430Z,0.00
2019-03-16T01:31:01.480Z,0.00
2019-03-16T01:32:54.476Z,0.00
2019-03-16T01:33:54.513Z,0.00
2019-03-16T01:35:47.501Z,0.00
2019-03-16T01:36:47.549Z,0.00
2019-03-16T01:38:40.560Z,0.00
2019-03-16T01:39:40.617Z,0.00
2019-03-16T01:41:33.573Z,0.00
2019-03-16T01:42:33.628Z,0.00
2019-03-16T01:44:26.626Z,0.00
2019-03-16T01:45:26.664Z,0.00
2019-03-16T01:47:19.680Z,0.00
2019-03-16T01:48:19.699Z,0.00
2019-03-16T01:50:12.684Z,0.00
2019-03-16T01:51:12.740Z,0.00
2019-03-16T01:53:05.750Z,0.00
2019-03-16T01:54:05.781Z,0.00
2019-03-16T01:55:58.757Z,0.00
2019-03-16T01:56:58.813Z,0.00
2019-03-16T01:58:51.832Z,0.00
2019-03-16T01:59:51.851Z,0.00
2019-03-16T02:01:44.826Z,0.00
2019-03-16T02:02:55.166Z,0.00
2019-03-16T02:04:37.885Z,0.00
2019-03-16T02:05:37.930Z,0.00
2019-03-16T02:07:30.978Z,0.00
2019-03-16T02:08:31.001Z,0.00
2019-03-16T02:10:23.982Z,0.00
2019-03-16T02:11:24.038Z,0.00
2019-03-16T02:13:17.076Z,0.00
2019-03-16T02:14:17.091Z,0.00
2019-03-16T02:16:11.548Z,0.00
2019-03-16T02:17:10.147Z,0.00
2019-03-16T02:19:03.122Z,0.00
2019-03-16T02:20:03.157Z,0.00
2019-03-16T02:21:56.176Z,0.00
2019-03-16T02:22:56.208Z,0.00
2019-03-16T02:24:49.226Z,0.00
2019-03-16T02:25:49.242Z,0.00
2019-03-16T02:27:42.237Z,0.00
2019-03-16T02:28:42.296Z,0.00
2019-03-16T02:30:35.305Z,0.00
2019-03-16T02:31:35.350Z,0.00
2019-03-16T02:33:28.319Z,0.00
2019-03-16T02:34:28.374Z,0.00
2019-03-16T02:36:21.379Z,0.00
2019-03-16T02:37:21.412Z,0.00
2019-03-16T02:39:14.410Z,0.00
2019-03-16T02:40:14.468Z,0.00
2019-03-16T02:42:07.429Z,0.00
2019-03-16T02:43:07.487Z,0.00
2019-03-16T02:45:00.500Z,0.00
2019-03-16T02:46:00.524Z,0.00
2019-03-16T02:47:53.522Z,0.00
2019-03-16T02:48:53.556Z,0.00
2019-03-16T02:50:46.548Z,0.00
2019-03-16T02:51:46.591Z,0.00
2019-03-16T02:53:39.567Z,0.00
2019-03-16T02:54:39.644Z,0.00
2019-03-16T02:56:32.627Z,0.00
2019-03-16T02:57:32.658Z,0.00
2019-03-16T02:59:25.636Z,0.00
2019-03-16T03:00:25.696Z,0.00
2019-03-16T03:02:18.689Z,0.00
2019-03-16T03:03:29.132Z,0.00
2019-03-16T03:05:11.747Z,0.00
2019-03-16T03:06:11.794Z,0.00
2019-03-16T03:08:04.761Z,0.00
2019-03-16T03:09:04.799Z,0.00
2019-03-16T03:10:57.799Z,0.00
2019-03-16T03:11:57.853Z,0.00
2019-03-16T03:13:50.898Z,0.00
2019-03-16T03:14:50.872Z,0.00
2019-03-16T03:16:43.874Z,0.00
2019-03-16T03:17:43.908Z,0.00
2019-03-16T03:19:36.888Z,0.00
2019-03-16T03:20:36.954Z,0.00
2019-03-16T03:22:29.946Z,0.00
2019-03-16T03:23:29.987Z,0.00
2019-03-16T03:25:22.980Z,0.00
2019-03-16T03:26:23.016Z,0.00
2019-03-16T03:28:16.015Z,0.00
2019-03-16T03:29:16.052Z,0.00
2019-03-16T03:31:09.106Z,0.00
2019-03-16T03:32:09.134Z,0.00
2019-03-16T03:34:02.985Z,0.00
2019-03-16T03:35:02.133Z,0.00
2019-03-16T03:36:55.122Z,0.00
2019-03-16T03:37:55.157Z,0.00
2019-03-16T03:39:48.146Z,0.00
2019-03-16T03:40:48.201Z,0.00
2019-03-16T03:42:41.219Z,0.00
2019-03-16T03:43:41.243Z,0.00
2019-03-16T03:45:34.232Z,0.00
2019-03-16T03:46:34.289Z,0.00
2019-03-16T03:48:27.292Z,0.00
2019-03-16T03:49:27.325Z,0.00
2019-03-16T03:51:20.326Z,0.00
2019-03-16T03:52:20.385Z,0.00
2019-03-16T03:54:13.353Z,0.00
2019-03-16T03:55:13.394Z,0.00
2019-03-16T03:57:06.909Z,0.00
2019-03-16T03:58:06.937Z,0.00
2019-03-16T03:59:59.940Z,0.00
2019-03-16T04:00:59.971Z,0.00
2019-03-16T04:02:52.966Z,0.00
2019-03-16T04:03:53.003Z,0.00
2019-03-16T04:05:45.989Z,0.00
2019-03-16T04:06:46.051Z,0.00
2019-03-16T04:08:39.042Z,0.00
2019-03-16T04:09:39.083Z,0.00
2019-03-16T04:11:32.063Z,0.00
2019-03-16T04:12:32.120Z,0.00
2019-03-16T04:14:25.134Z,0.00
2019-03-16T04:15:25.168Z,0.00
2019-03-16T04:17:18.164Z,0.00
2019-03-16T04:18:18.221Z,0.00
2019-03-16T04:20:11.210Z,0.00
2019-03-16T04:21:11.243Z,0.00
2019-03-16T04:23:04.235Z,0.00
2019-03-16T04:24:04.292Z,0.00
2019-03-16T04:25:57.284Z,0.00
2019-03-16T04:26:57.328Z,0.00
2019-03-16T04:28:50.298Z,0.00
2019-03-16T04:29:50.360Z,0.00
2019-03-16T04:31:43.354Z,0.00
2019-03-16T04:32:43.484Z,0.00
2019-03-16T04:34:36.403Z,0.00
2019-03-16T04:35:36.447Z,0.00
2019-03-16T04:37:29.446Z,0.00
2019-03-16T04:38:29.472Z,0.00
2019-03-16T04:40:22.450Z,0.00
2019-03-16T04:41:22.505Z,0.00
2019-03-16T04:43:15.512Z,0.00
2019-03-16T04:44:15.550Z,0.00
2019-03-16T04:46:08.547Z,0.00
2019-03-16T04:47:08.587Z,0.00
2019-03-16T04:49:01.567Z,0.00
2019-03-16T04:50:01.618Z,0.00
2019-03-16T04:51:54.618Z,0.00
2019-03-16T04:52:54.665Z,0.00
2019-03-16T04:54:47.650Z,0.00
2019-03-16T04:55:47.700Z,0.00
2019-03-16T04:57:42.239Z,0.00
2019-03-16T04:58:42.340Z,0.00
2019-03-16T05:00:35.223Z,0.00
2019-03-16T05:01:35.279Z,0.00
2019-03-16T05:03:28.277Z,0.00
2019-03-16T05:04:41.686Z,0.00
2019-03-16T05:06:21.294Z,0.00
2019-03-16T05:07:21.362Z,0.00
2019-03-16T05:09:14.402Z,0.00
2019-03-16T05:10:14.391Z,0.00
2019-03-16T05:12:07.389Z,0.00
2019-03-16T05:13:07.428Z,0.00
2019-03-16T05:15:00.567Z,0.00
2019-03-16T05:16:00.463Z,0.00
2019-03-16T05:17:53.441Z,0.00
2019-03-16T05:18:53.498Z,0.00
2019-03-16T05:20:46.520Z,4.00
2019-03-16T05:21:46.556Z,4.00
2019-03-16T05:23:39.556Z,4.00
2019-03-16T05:24:39.598Z,0.00
2019-03-16T05:26:32.576Z,4.00
2019-03-16T05:27:32.638Z,8.00
2019-03-16T05:29:25.674Z,8.00
2019-03-16T05:30:25.671Z,8.00
2019-03-16T05:32:18.676Z,8.00
2019-03-16T05:33:18.709Z,16.00
2019-03-16T05:35:11.698Z,16.00
2019-03-16T05:36:11.753Z,20.00
2019-03-16T05:38:04.746Z,24.00
2019-03-16T05:39:04.785Z,28.00
2019-03-16T05:40:57.782Z,32.00
2019-03-16T05:41:57.818Z,36.00
2019-03-16T05:43:50.826Z,44.00
2019-03-16T05:44:50.856Z,44.00
2019-03-16T05:46:43.840Z,52.00
2019-03-16T05:47:43.898Z,60.00
2019-03-16T05:49:36.899Z,56.00
2019-03-16T05:50:36.933Z,64.00
2019-03-16T05:52:29.913Z,72.00
2019-03-16T05:53:29.969Z,76.00
2019-03-16T05:55:22.967Z,88.00
2019-03-16T05:56:23.004Z,92.00
2019-03-16T05:58:16.001Z,96.00
2019-03-16T05:59:16.037Z,112.00
2019-03-16T06:01:09.034Z,140.00
2019-03-16T06:02:09.070Z,152.00
2019-03-16T06:04:02.073Z,192.00
2019-03-16T06:05:10.305Z,196.00
2019-03-16T06:06:55.116Z,208.00
2019-03-16T06:07:55.155Z,220.00
2019-03-16T06:09:48.138Z,208.00
2019-03-16T06:10:48.191Z,212.00
2019-03-16T06:12:41.219Z,232.00
2019-03-16T06:13:41.235Z,248.00
2019-03-16T06:15:34.239Z,256.00
2019-03-16T06:16:34.273Z,260.00
2019-03-16T06:18:27.267Z,272.00
2019-03-16T06:19:27.321Z,284.00
2019-03-16T06:21:20.294Z,300.00
2019-03-16T06:22:20.347Z,320.00
2019-03-16T06:24:13.350Z,336.00
2019-03-16T06:25:13.396Z,384.00
2019-03-16T06:27:06.368Z,376.00
2019-03-16T06:28:06.443Z,376.00
2019-03-16T06:29:59.930Z,432.00
2019-03-16T06:30:59.969Z,436.00
2019-03-16T06:32:52.965Z,516.00
2019-03-16T06:33:53.004Z,544.00
2019-03-16T06:35:45.981Z,552.00
2019-03-16T06:36:46.040Z,560.00
2019-03-16T06:38:39.045Z,648.00
2019-03-16T06:39:39.082Z,616.00
2019-03-16T06:41:32.081Z,556.00
2019-03-16T06:42:32.142Z,520.00
2019-03-16T06:44:25.175Z,604.00
2019-03-16T06:45:25.185Z,624.00
2019-03-16T06:47:18.206Z,640.00
2019-03-16T06:48:18.245Z,860.00
2019-03-16T06:50:11.238Z,940.00
2019-03-16T06:51:11.301Z,984.00
2019-03-16T06:53:04.271Z,976.00
2019-03-16T06:54:04.307Z,888.00
2019-03-16T06:55:57.327Z,1076.00
2019-03-16T06:56:57.358Z,1004.00
2019-03-16T06:58:50.336Z,872.00
2019-03-16T06:59:50.394Z,712.00
2019-03-16T07:01:43.392Z,768.00
2019-03-16T07:02:43.438Z,720.00
2019-03-16T07:04:36.467Z,1032.00
2019-03-16T07:05:38.766Z,1016.00
2019-03-16T07:07:29.459Z,1452.00
2019-03-16T07:08:29.493Z,1560.00
2019-03-16T07:10:22.497Z,1440.00
2019-03-16T07:11:22.531Z,1320.00
2019-03-16T07:13:15.515Z,1184.00
2019-03-16T07:14:15.566Z,1112.00
2019-03-16T07:16:08.561Z,1456.00
2019-03-16T07:17:08.597Z,1420.00
2019-03-16T07:19:01.576Z,1388.00
2019-03-16T07:20:01.633Z,1800.00
2019-03-16T07:21:55.138Z,2860.00
2019-03-16T07:22:55.174Z,3204.00
2019-03-16T07:24:51.486Z,2348.00
2019-03-16T07:25:48.204Z,2084.00
2019-03-16T07:27:41.206Z,1624.00
2019-03-16T07:28:41.242Z,1576.00
2019-03-16T07:30:37.102Z,1344.00
2019-03-16T07:31:34.276Z,1108.00
2019-03-16T07:33:27.275Z,1468.00
2019-03-16T07:34:27.310Z,2000.00
2019-03-16T07:36:20.289Z,1596.00
2019-03-16T07:37:20.350Z,1132.00
2019-03-16T07:39:14.859Z,1820.00
2019-03-16T07:40:14.890Z,1900.00
2019-03-16T07:42:07.867Z,1660.00
2019-03-16T07:43:07.972Z,1292.00
2019-03-16T07:45:08.082Z,1636.00
2019-03-16T07:46:00.991Z,1512.00
2019-03-16T07:47:54.002Z,1304.00
2019-03-16T07:48:54.019Z,1152.00
2019-03-16T07:50:46.999Z,1116.00
2019-03-16T07:51:47.117Z,1156.00
2019-03-16T07:53:40.068Z,1592.00
2019-03-16T07:54:40.166Z,1648.00
2019-03-16T07:56:33.064Z,1440.00
2019-03-16T07:57:40.155Z,1252.00
2019-03-16T07:59:26.114Z,1296.00
2019-03-16T08:00:26.150Z,1308.00
2019-03-16T08:02:19.143Z,1128.00
2019-03-16T08:03:19.183Z,1412.00
2019-03-16T08:05:18.571Z,1332.00
2019-03-16T08:06:12.217Z,1496.00
2019-03-16T08:08:05.213Z,1264.00
2019-03-16T08:09:05.380Z,1328.00
2019-03-16T08:10:58.465Z,1564.00
2019-03-16T08:11:58.295Z,1724.00
2019-03-16T08:13:51.280Z,1576.00
2019-03-16T08:14:51.458Z,1152.00
2019-03-16T08:16:44.355Z,1204.00
2019-03-16T08:19:26.349Z,1872.00
2019-03-16T08:20:26.361Z,1940.00
2019-03-16T08:22:19.366Z,1680.00
2019-03-16T08:23:19.394Z,2008.00
2019-03-16T08:25:12.411Z,1384.00
2019-03-16T08:26:12.439Z,1364.00
2019-03-16T08:28:05.452Z,1612.00
2019-03-16T08:29:05.490Z,1412.00
2019-03-16T08:30:58.590Z,1584.00
2019-03-16T08:31:58.514Z,1776.00
2019-03-16T08:33:51.525Z,1712.00
2019-03-16T08:34:51.554Z,1652.00
2019-03-16T08:36:44.603Z,1452.00
2019-03-16T08:37:44.590Z,1812.00
2019-03-16T08:39:37.589Z,1224.00
2019-03-16T08:40:37.701Z,1384.00
2019-03-16T08:42:30.643Z,1652.00
2019-03-16T08:43:30.693Z,1644.00
2019-03-16T08:45:23.672Z,1624.00
2019-03-16T08:46:23.728Z,1392.00
2019-03-16T08:48:22.823Z,1676.00
2019-03-16T08:49:16.767Z,1852.00
2019-03-16T08:51:09.769Z,2156.00
2019-03-16T08:52:09.801Z,1912.00
2019-03-16T08:54:02.813Z,1864.00
2019-03-16T08:55:02.852Z,1608.00
2019-03-16T08:56:55.863Z,2280.00
2019-03-16T08:58:05.704Z,2036.00
2019-03-16T08:59:48.886Z,2352.00
2019-03-16T09:00:48.930Z,2016.00
2019-03-16T09:02:41.931Z,2108.00
2019-03-16T09:03:43.804Z,2488.00
2019-03-16T09:05:34.959Z,2172.00
2019-03-16T09:06:35.017Z,2168.00
2019-03-16T09:08:28.025Z,1884.00
2019-03-16T09:09:28.061Z,1896.00
2019-03-16T09:11:21.038Z,2444.00
2019-03-16T09:12:21.096Z,2812.00
2019-03-16T09:14:14.092Z,3128.00
2019-03-16T09:15:14.130Z,3112.00
2019-03-16T09:17:09.000Z,2208.00
2019-03-16T09:18:07.164Z,2480.00
2019-03-16T09:20:00.309Z,2000.00
2019-03-16T09:21:00.202Z,2124.00
2019-03-16T09:22:53.203Z,2484.00
2019-03-16T09:23:53.235Z,3100.00
2019-03-16T09:25:46.240Z,3732.00
2019-03-16T09:26:46.279Z,3348.00
2019-03-16T09:28:39.279Z,3296.00
2019-03-16T09:29:39.336Z,3864.00
2019-03-16T09:31:32.334Z,3928.00
2019-03-16T09:32:32.371Z,3648.00
2019-03-16T09:34:25.361Z,3808.00
2019-03-16T09:35:25.416Z,4224.00
2019-03-16T09:37:18.437Z,6548.00
2019-03-16T09:38:18.564Z,5684.00
2019-03-16T09:40:11.464Z,8056.00
2019-03-16T09:41:11.496Z,6188.00
2019-03-16T09:43:04.477Z,4756.00
2019-03-16T09:44:04.535Z,4988.00
2019-03-16T09:45:57.544Z,4968.00
2019-03-16T09:46:57.576Z,4200.00
2019-03-16T09:48:50.594Z,4348.00
2019-03-16T09:49:50.606Z,4096.00
2019-03-16T09:51:43.613Z,3976.00
2019-03-16T09:52:43.659Z,3468.00
2019-03-16T09:54:36.668Z,4204.00
2019-03-16T09:55:36.701Z,3896.00
2019-03-16T09:57:29.690Z,3196.00
2019-03-16T09:58:31.455Z,4040.00
2019-03-16T10:00:22.743Z,3832.00
2019-03-16T10:01:22.781Z,4240.00
2019-03-16T10:03:15.764Z,3592.00
2019-03-16T10:04:15.822Z,4060.00
2019-03-16T10:06:08.860Z,3612.00
2019-03-16T10:07:08.884Z,3288.00
2019-03-16T10:09:01.873Z,3536.00
2019-03-16T10:10:01.935Z,3036.00
2019-03-16T10:11:54.932Z,3292.00
2019-03-16T10:12:54.971Z,3368.00
2019-03-16T10:14:47.960Z,3308.00
2019-03-16T10:15:48.017Z,3028.00
2019-03-16T10:17:41.013Z,3008.00
2019-03-16T10:18:41.054Z,3392.00
2019-03-16T10:20:34.056Z,3440.00
2019-03-16T10:21:34.095Z,3240.00
2019-03-16T10:23:27.122Z,3768.00
2019-03-16T10:24:27.136Z,3176.00
2019-03-16T10:26:20.122Z,2764.00
2019-03-16T10:27:20.175Z,2704.00
2019-03-16T10:29:13.203Z,2384.00
2019-03-16T10:30:13.247Z,2736.00
2019-03-16T10:32:06.229Z,2036.00
2019-03-16T10:33:06.287Z,2044.00
2019-03-16T10:34:59.292Z,2460.00
2019-03-16T10:35:59.332Z,2428.00
2019-03-16T10:37:52.342Z,2408.00
2019-03-16T10:38:52.402Z,2244.00
2019-03-16T10:40:45.399Z,2240.00
2019-03-16T10:41:45.438Z,2620.00
2019-03-16T10:43:38.418Z,2148.00
2019-03-16T10:44:38.478Z,2220.00
2019-03-16T10:46:31.491Z,2240.00
2019-03-16T10:47:31.522Z,2272.00
2019-03-16T10:49:24.533Z,2108.00
2019-03-16T10:50:24.566Z,2016.00
2019-03-16T10:52:17.567Z,2056.00
2019-03-16T10:53:17.622Z,1912.00
2019-03-16T10:55:10.612Z,2028.00
2019-03-16T10:56:10.658Z,2088.00
2019-03-16T10:58:03.664Z,1856.00
2019-03-16T10:59:03.713Z,2100.00
2019-03-16T11:00:56.712Z,1956.00
2019-03-16T11:01:56.753Z,2128.00
2019-03-16T11:03:49.781Z,1864.00
2019-03-16T11:04:49.796Z,1680.00
2019-03-16T11:06:42.794Z,1928.00
2019-03-16T11:07:42.834Z,1900.00
2019-03-16T11:09:35.838Z,1856.00
2019-03-16T11:10:35.882Z,2108.00
2019-03-16T11:12:28.917Z,2184.00
2019-03-16T11:13:28.937Z,2192.00
2019-03-16T11:15:21.938Z,2600.00
2019-03-16T11:16:21.993Z,2480.00
2019-03-16T11:18:14.999Z,3120.00
2019-03-16T11:19:15.036Z,2736.00
2019-03-16T11:21:08.050Z,2704.00
2019-03-16T11:22:08.079Z,2860.00
2019-03-16T11:24:01.077Z,2716.00
2019-03-16T11:25:01.140Z,2948.00
2019-03-16T11:26:54.147Z,3124.00
2019-03-16T11:27:54.192Z,3500.00
2019-03-16T11:29:47.190Z,4036.00
2019-03-16T11:30:47.229Z,3736.00
2019-03-16T11:32:40.239Z,3428.00
2019-03-16T11:33:40.274Z,3172.00
2019-03-16T11:35:33.287Z,2988.00
2019-03-16T11:36:33.411Z,3352.00
2019-03-16T11:38:26.309Z,3808.00
2019-03-16T11:39:26.369Z,4444.00
2019-03-16T11:41:19.382Z,5448.00
2019-03-16T11:42:19.428Z,6304.00
2019-03-16T11:44:12.425Z,5696.00
2019-03-16T11:45:12.465Z,5856.00
2019-03-16T11:47:05.462Z,6460.00
2019-03-16T11:48:05.500Z,4684.00
2019-03-16T11:49:58.507Z,4380.00
2019-03-16T11:50:58.535Z,4064.00
2019-03-16T11:52:51.537Z,4300.00
2019-03-16T11:53:51.595Z,5096.00
2019-03-16T11:55:44.574Z,4244.00
2019-03-16T11:56:44.625Z,5324.00
2019-03-16T11:58:37.613Z,4516.00
2019-03-16T11:59:37.658Z,5068.00
2019-03-16T12:01:30.655Z,4764.00
2019-03-16T12:02:30.693Z,4868.00
2019-03-16T12:04:23.755Z,4620.00
2019-03-16T12:05:23.729Z,5380.00
2019-03-16T12:07:16.723Z,4508.00
2019-03-16T12:08:16.996Z,5020.00
2019-03-16T12:10:09.768Z,4020.00
2019-03-16T12:11:09.805Z,3804.00
2019-03-16T12:13:02.788Z,3696.00
2019-03-16T12:14:02.845Z,3604.00
2019-03-16T12:16:01.102Z,3780.00
2019-03-16T12:17:08.699Z,3872.00
2019-03-16T12:19:05.505Z,3380.00
2019-03-16T12:20:05.565Z,3300.00
2019-03-16T12:22:33.091Z,3116.00
2019-03-16T12:23:33.120Z,3312.00
2019-03-16T12:25:26.259Z,3272.00
2019-03-16T12:26:26.161Z,3256.00
2019-03-16T12:29:16.704Z,2984.00
2019-03-16T12:30:16.743Z,3168.00
2019-03-16T12:34:27.820Z,3716.00
2019-03-16T12:35:27.835Z,3972.00
2019-03-16T12:39:04.355Z,3952.00
2019-03-16T12:40:04.415Z,3916.00
2019-03-16T12:44:03.968Z,4548.00
2019-03-16T12:45:03.998Z,4304.00
2019-03-16T12:49:26.750Z,4396.00
2019-03-16T12:50:26.849Z,3572.00
2019-03-16T12:52:42.815Z,4932.00
2019-03-16T12:53:42.846Z,9024.00
2019-03-16T12:55:59.083Z,6564.00
2019-03-16T12:56:59.116Z,6228.00
2019-03-16T12:58:52.114Z,6892.00
2019-03-16T12:59:52.154Z,7220.00
2019-03-16T13:01:45.134Z,4076.00
2019-03-16T13:02:45.204Z,4704.00
2019-03-16T13:05:01.247Z,5232.00
2019-03-16T13:06:02.590Z,4928.00
2019-03-16T13:07:54.266Z,4656.00
2019-03-16T13:08:54.312Z,4856.00
2019-03-16T13:10:47.313Z,3892.00
2019-03-16T13:11:47.345Z,4940.00
2019-03-16T13:13:51.853Z,3756.00
2019-03-16T13:14:51.891Z,4840.00
2019-03-16T13:17:31.548Z,4832.00
2019-03-16T13:18:31.590Z,4632.00
2019-03-16T13:20:24.570Z,4856.00
2019-03-16T13:21:24.637Z,3824.00
2019-03-16T13:23:29.161Z,3712.00
2019-03-16T13:24:29.196Z,3468.00
2019-03-16T13:26:45.201Z,3772.00
2019-03-16T13:27:45.257Z,3764.00
2019-03-16T13:30:24.922Z,3116.00
2019-03-16T13:31:24.954Z,3092.00
2019-03-16T13:33:53.463Z,2800.00
2019-03-16T13:34:52.565Z,2788.00
2019-03-16T13:37:08.645Z,2844.00
2019-03-16T13:38:08.679Z,2600.00
2019-03-16T13:40:36.276Z,2348.00
2019-03-16T13:41:36.333Z,2160.00
2019-03-16T13:45:01.860Z,1888.00
2019-03-16T13:46:02.612Z,1908.00
2019-03-16T13:47:55.405Z,2144.00
2019-03-16T13:48:54.946Z,1708.00
2019-03-16T13:50:47.957Z,2052.00
2019-03-16T13:51:48.002Z,2124.00
2019-03-16T13:54:38.811Z,2324.00
2019-03-16T13:55:38.855Z,2224.00
2019-03-16T13:57:43.921Z,1960.00
2019-03-16T13:58:43.932Z,2140.00
2019-03-16T14:00:37.028Z,2760.00
2019-03-16T14:01:36.975Z,2468.00
2019-03-16T14:04:27.843Z,2304.00
2019-03-16T14:05:27.870Z,1976.00
2019-03-16T14:07:55.476Z,1712.00
2019-03-16T14:08:55.533Z,1736.00
2019-03-16T14:10:48.595Z,1492.00
2019-03-16T14:11:48.571Z,1572.00
2019-03-16T14:13:41.548Z,1584.00
2019-03-16T14:14:41.606Z,1584.00
2019-03-16T14:16:34.686Z,1676.00
2019-03-16T14:17:34.648Z,2080.00
2019-03-16T14:19:27.623Z,2432.00
2019-03-16T14:20:27.686Z,2728.00
2019-03-16T14:22:20.727Z,2844.00
2019-03-16T14:23:20.761Z,2600.00
2019-03-16T14:25:13.881Z,2676.00
2019-03-16T14:26:13.802Z,2804.00
2019-03-16T14:28:06.865Z,3100.00
2019-03-16T14:29:06.839Z,3628.00
2019-03-16T14:30:59.832Z,4368.00
2019-03-16T14:31:59.876Z,3820.00
2019-03-16T14:34:04.522Z,4780.00
2019-03-16T14:35:04.558Z,3996.00
2019-03-16T14:36:57.642Z,3680.00
2019-03-16T14:37:57.603Z,4056.00
2019-03-16T14:40:02.179Z,4476.00
2019-03-16T14:41:02.222Z,2520.00
2019-03-16T14:43:41.592Z,4136.00
2019-03-16T14:44:41.602Z,3372.00
2019-03-16T14:46:46.107Z,3264.00
2019-03-16T14:47:46.172Z,3240.00
2019-03-16T14:49:50.779Z,3564.00
2019-03-16T14:50:50.802Z,4304.00
2019-03-16T14:53:06.857Z,3528.00
2019-03-16T14:54:06.892Z,2928.00
2019-03-16T14:56:00.092Z,4224.00
2019-03-16T14:57:01.948Z,3980.00
2019-03-16T14:58:53.132Z,5564.00
2019-03-16T14:59:53.182Z,6200.00
2019-03-16T15:01:46.226Z,4708.00
2019-03-16T15:02:46.805Z,5604.00
2019-03-16T15:04:53.633Z,4628.00
2019-03-16T15:05:51.485Z,5576.00
2019-03-16T15:11:13.935Z,5048.00
2019-03-16T15:12:15.936Z,4928.00
2019-03-16T15:14:22.011Z,5424.00
2019-03-16T15:15:17.642Z,5412.00
2019-03-16T15:17:33.636Z,4300.00
2019-03-16T15:18:36.008Z,3568.00
2019-03-16T15:20:29.805Z,2528.00
2019-03-16T15:21:29.749Z,2304.00
2019-03-16T15:23:57.298Z,3728.00
2019-03-16T15:24:57.310Z,4288.00
2019-03-16T15:26:50.341Z,3628.00
2019-03-16T15:27:50.359Z,3512.00
2019-03-16T15:29:43.885Z,2988.00
2019-03-16T15:30:50.729Z,3560.00
2019-03-16T15:32:36.895Z,3672.00
2019-03-16T15:33:36.949Z,3072.00
2019-03-16T15:35:29.948Z,2972.00
2019-03-16T15:36:30.002Z,2464.00
2019-03-16T15:38:22.967Z,2264.00
2019-03-16T15:39:23.027Z,2072.00
2019-03-16T15:41:27.536Z,2892.00
2019-03-16T15:42:27.616Z,2592.00
2019-03-16T15:44:32.109Z,3116.00
2019-03-16T15:45:32.146Z,3684.00
2019-03-16T15:47:25.110Z,2592.00
2019-03-16T15:48:25.161Z,2584.00
2019-03-16T15:50:18.464Z,2484.00
2019-03-16T15:51:18.474Z,2908.00
2019-03-16T15:53:23.026Z,2304.00
2019-03-16T15:54:23.111Z,2660.00
2019-03-16T15:56:36.106Z,3196.00
2019-03-16T15:57:35.937Z,2600.00
2019-03-16T15:59:40.456Z,2628.00
2019-03-16T16:00:40.488Z,1468.00
2019-03-16T16:02:44.969Z,1172.00
2019-03-16T16:03:45.026Z,976.00
2019-03-16T16:05:50.045Z,1072.00
2019-03-16T16:06:50.094Z,1636.00
2019-03-16T16:08:43.133Z,1428.00
2019-03-16T16:09:43.134Z,1208.00
2019-03-16T16:11:36.235Z,1160.00
2019-03-16T16:12:36.190Z,1484.00
2019-03-16T16:29:50.082Z,1528.00
2019-03-16T16:30:50.121Z,1472.00
2019-03-16T16:36:33.274Z,1548.00
2019-03-16T16:37:33.306Z,1728.00
2019-03-16T16:42:18.874Z,1616.00
2019-03-16T16:43:19.042Z,1276.00
2019-03-16T16:55:46.191Z,1352.00
2019-03-16T16:56:46.224Z,1148.00
2019-03-16T16:59:13.743Z,420.00
2019-03-16T17:00:13.780Z,1032.00
2019-03-16T17:02:06.781Z,984.00
2019-03-16T17:03:06.841Z,1012.00
2019-03-16T17:04:59.840Z,992.00
2019-03-16T17:05:59.874Z,832.00
2019-03-16T17:08:15.887Z,792.00
2019-03-16T17:09:15.938Z,692.00
2019-03-16T17:47:24.879Z,20.00
2019-03-16T17:48:24.919Z,12.00
2019-03-16T18:27:53.421Z,0.00
2019-03-16T18:28:53.444Z,0.00
2019-03-16T19:51:43.931Z,0.00
2019-03-16T19:52:43.957Z,0.00
2019-03-16T19:57:41.017Z,0.00
2019-03-16T19:58:41.073Z,0.00
2019-03-16T20:15:10.016Z,0.00
2019-03-16T20:16:09.947Z,0.00
2019-03-16T20:18:48.974Z,0.00
2019-03-16T20:19:49.005Z,0.00
2019-03-16T20:21:41.992Z,0.00
2019-03-16T20:22:42.043Z,0.00
2019-03-16T20:32:27.276Z,0.00
2019-03-16T20:33:27.285Z,0.00
2019-03-16T21:30:12.110Z,0.00
2019-03-16T21:31:12.151Z,0.00
2019-03-16T21:33:05.150Z,0.00
2019-03-16T21:34:05.186Z,0.00
2019-03-16T21:35:58.171Z,0.00
2019-03-16T21:36:58.229Z,0.00
2019-03-16T21:38:51.226Z,0.00
2019-03-16T21:39:51.262Z,0.00
2019-03-16T21:41:44.555Z,0.00
2019-03-16T21:42:44.308Z,0.00
2019-03-16T21:44:37.305Z,0.00
2019-03-16T21:45:37.345Z,0.00
2019-03-16T21:47:30.365Z,0.00
2019-03-16T21:48:30.426Z,0.00
2019-03-16T21:50:23.417Z,0.00
2019-03-16T21:51:23.438Z,0.00
2019-03-16T21:53:16.434Z,0.00
2019-03-16T21:54:16.580Z,0.00
2019-03-16T21:56:09.472Z,0.00
2019-03-16T21:57:09.629Z,0.00
2019-03-16T21:59:02.516Z,0.00
2019-03-16T22:00:02.559Z,0.00
2019-03-16T22:01:55.634Z,0.00
2019-03-16T22:02:55.670Z,0.00
2019-03-16T22:04:48.653Z,0.00
2019-03-16T22:05:48.708Z,0.00
2019-03-16T22:07:41.707Z,0.00
2019-03-16T22:08:41.753Z,0.00
2019-03-16T22:10:34.799Z,0.00
2019-03-16T22:11:34.825Z,0.00
2019-03-16T22:13:27.784Z,0.00
2019-03-16T22:14:27.842Z,0.00
2019-03-16T22:16:20.853Z,0.00
2019-03-16T22:17:20.891Z,0.00
2019-03-16T22:19:13.898Z,0.00
2019-03-16T22:20:13.936Z,0.00
2019-03-16T22:22:07.004Z,0.00
2019-03-16T22:23:06.979Z,0.00
2019-03-16T22:24:59.981Z,0.00
2019-03-16T22:26:00.017Z,0.00
2019-03-16T22:27:53.051Z,0.00
2019-03-16T22:28:53.089Z,0.00
2019-03-16T22:30:46.071Z,0.00
2019-03-16T22:31:46.127Z,0.00
2019-03-16T22:33:39.131Z,0.00
2019-03-16T22:34:39.164Z,0.00
2019-03-16T22:36:32.150Z,0.00
2019-03-16T22:37:32.203Z,0.00
2019-03-16T22:39:25.223Z,0.00
2019-03-16T22:40:25.247Z,0.00
2019-03-16T22:42:18.263Z,0.00
2019-03-16T22:43:18.301Z,0.00
2019-03-16T22:45:22.799Z,0.00
2019-03-16T22:46:22.857Z,0.00
2019-03-16T22:48:15.850Z,0.00
2019-03-16T22:49:15.894Z,0.00
2019-03-16T22:51:08.882Z,0.00
2019-03-16T22:52:08.941Z,0.00
2019-03-16T22:54:01.939Z,0.00
2019-03-16T22:55:01.983Z,0.00
2019-03-16T22:56:54.958Z,0.00
2019-03-16T22:57:55.013Z,0.00
2019-03-16T22:59:48.019Z,0.00
2019-03-16T23:00:48.062Z,0.00
2019-03-16T23:02:41.067Z,0.00
2019-03-16T23:03:41.101Z,0.00
2019-03-16T23:05:34.100Z,0.00
2019-03-16T23:06:34.155Z,0.00
2019-03-16T23:08:27.146Z,0.00
2019-03-16T23:09:27.186Z,0.00
2019-03-16T23:11:20.198Z,0.00